CDT,Max TemperatureF,Mean TemperatureF,Min TemperatureF,Max Dew PointF,MeanDew PointF,Min DewpointF,Max Humidity, Mean Humidity, Min Humidity, Max Sea Level PressureIn, Mean Sea Level PressureIn, Min Sea Level PressureIn, Max VisibilityMiles, Mean VisibilityMiles, Min VisibilityMiles, Max Wind SpeedMPH, Mean Wind SpeedMPH, Max Gust SpeedMPH,PrecipitationIn, CloudCover, Events, WindDirDegrees
2013-9-1,102,90,77,73,68,60,82,53,26,29.89,29.83,29.76,10,10,8,12,5,,0.00,0,,149
2013-9-2,102,90,79,74,69,61,82,55,27,29.94,29.87,29.77,10,10,10,15,4,20,0.00,0,,154
2013-9-3,102,88,75,69,66,58,78,52,25,29.97,29.90,29.83,10,10,10,12,2,,0.00,1,,151
2013-9-4,100,90,81,71,69,65,69,54,34,29.99,29.95,29.90,10,10,10,22,4,33,0.00,1,Rain,125
2013-9-5,100,88,75,73,69,64,85,60,31,30.08,30.00,29.93,10,10,10,15,3,21,0.00,2,,84
2013-9-6,100,88,77,73,70,64,82,60,33,30.09,29.99,29.89,10,10,10,14,2,24,0.00,2,,114
2013-9-7,98,88,78,74,71,66,83,64,37,30.01,29.94,29.85,10,10,9,21,4,26,0.00,3,Rain-Thunderstorm,114
2013-9-8,93,84,77,74,72,68,89,71,47,29.97,29.92,29.85,10,10,10,14,5,20,0.00,3,Rain,106
2013-9-9,93,84,75,73,71,67,89,70,41,29.98,29.91,29.87,10,10,9,28,7,32,0.03,3,Rain,95
2013-9-10,88,82,75,75,73,70,89,80,61,30.05,29.98,29.92,10,8,2,15,8,21,0.21,6,Rain-Thunderstorm,127
2013-9-11,96,86,75,76,72,61,94,78,33,30.08,30.02,29.93,10,7,1,22,5,28,0.35,5,Rain,84
2013-9-12,97,86,75,74,70,57,94,69,27,30.05,29.97,29.86,10,9,5,12,4,17,0.00,4,,80
2013-9-13,98,85,73,71,64,55,90,54,24,29.93,29.86,29.77,10,10,9,16,4,26,0.00,1,,104
2013-9-14,100,86,73,70,67,61,88,61,29,29.90,29.85,29.79,10,10,8,18,3,21,0.00,2,,109
2013-9-15,97,88,79,74,70,68,79,61,41,30.00,29.91,29.86,10,10,10,14,5,17,0.00,2,,87
2013-9-16,91,84,77,74,73,70,84,71,55,30.04,29.97,29.91,10,9,2,20,7,34,0.18,3,Rain-Thunderstorm,57
2013-9-17,93,84,77,75,73,70,87,77,52,30.04,29.97,29.87,10,9,2,14,5,29,0.18,4,Rain,55
2013-9-18,96,85,77,75,73,69,88,75,45,30.00,29.93,29.85,10,9,4,10,4,17,0.00,4,Rain,79
2013-9-19,97,88,78,75,73,68,87,74,41,29.94,29.87,29.75,10,10,2,14,4,20,0.07,4,Rain,102
2013-9-20,87,80,75,78,74,69,90,84,74,29.84,29.78,29.72,10,8,0,15,6,26,0.57,8,Rain,103
2013-9-21,91,82,71,68,62,52,79,57,29,29.90,29.83,29.78,10,10,10,15,11,28,0.00,5,,16
2013-9-22,90,76,64,53,49,38,65,44,17,29.87,29.80,29.74,10,10,10,12,6,,0.00,0,,29
2013-9-23,91,74,57,58,53,45,87,54,20,29.81,29.77,29.71,10,10,10,6,1,,0.00,0,,33
2013-9-24,98,81,64,63,59,54,81,53,24,29.90,29.83,29.78,10,10,10,12,1,,0.00,0,,55
2013-9-25,99,84,69,66,61,55,84,51,24,29.86,29.80,29.74,10,10,10,9,2,,0.00,0,,153
2013-9-26,95,82,71,73,68,60,94,67,36,29.88,29.82,29.76,10,8,2,15,5,22,0.00,3,,166
2013-9-27,99,87,77,75,73,70,90,72,41,29.90,29.84,29.76,10,10,8,16,9,28,0.00,6,,136
2013-9-28,93,86,80,77,75,70,85,74,47,29.96,29.88,29.81,10,7,2,18,9,28,0.10,7,Rain-Thunderstorm,149
2013-9-29,84,78,73,75,70,66,89,78,58,30.04,29.96,29.89,10,8,1,16,5,24,0.70,7,Rain-Thunderstorm,28
2013-9-30,91,78,66,67,63,57,90,61,32,29.92,29.84,29.77,10,10,8,7,1,,0.00,1,,130